Time;durP1;ratioP1;P1;durP2;ratioP2;P2;SDS_P1;SDS_P2;PMS_P1;PMS_P2;Temp;Humidity;BMP_temperature;BMP_pressure;BME280_temperature;BME280_humidity;BME280_pressure;Samples;Min_cycle;Max_cycle;Signal;HPM_P1;HPM_P2
2023/10/07 00:00:47;;;;;;;5.85;3.20;;;;;;;;;;5057977;28;21886;-78
2023/10/07 00:03:19;;;;;;;10.55;3.67;;;;;;;;;;5059630;28;21336;-77
2023/10/07 00:05:50;;;;;;;9.80;3.92;;;;;;;;;;5055311;28;20055;-77
2023/10/07 00:08:21;;;;;;;8.85;3.53;;;;;;;;;;5046481;28;20032;-79
2023/10/07 00:10:50;;;;;;;8.57;3.55;;;;;;;;;;5059926;28;20032;-77
2023/10/07 00:13:20;;;;;;;10.32;4.35;;;;;;;;;;5041439;28;20037;-78
2023/10/07 00:15:51;;;;;;;8.80;3.63;;;;;;;;;;5056315;28;20507;-79
2023/10/07 00:18:18;;;;;;;7.15;3.65;;;;;;;;;;5042204;28;20067;-77
2023/10/07 00:20:50;;;;;;;9.13;4.28;;;;;;;;;;5045249;28;20033;-79
2023/10/07 00:23:19;;;;;;;9.27;3.60;;;;;;;;;;5057749;28;20059;-79
2023/10/07 00:25:50;;;;;;;8.65;3.80;;;;;;;;;;5056817;28;20123;-79
2023/10/07 00:28:18;;;;;;;8.95;4.25;;;;;;;;;;5037340;28;20791;-78
2023/10/07 00:30:47;;;;;;;6.80;3.75;;;;;;;;;;5055483;28;20040;-82
2023/10/07 00:33:14;;;;;;;7.28;3.80;;;;;;;;;;5058498;28;20122;-81
2023/10/07 00:35:39;;;;;;;10.10;4.40;;;;;;;;;;5060975;28;20113;-82
2023/10/07 00:38:05;;;;;;;12.70;4.40;;;;;;;;;;5061241;28;20594;-82
2023/10/07 00:42:56;;;;;;;7.15;3.97;;;;;;;;;;5061478;28;20379;-82
2023/10/07 00:45:24;;;;;;;7.68;4.40;;;;;;;;;;5044162;28;20143;-82
2023/10/07 00:47:52;;;;;;;8.60;4.15;;;;;;;;;;5062237;28;20026;-82
2023/10/07 00:50:17;;;;;;;8.75;4.40;;;;;;;;;;5044000;28;20109;-82
2023/10/07 00:55:24;;;;;;;8.60;4.90;;;;;;;;;;5061046;28;20500;-80
2023/10/07 00:58:03;;;;;;;10.05;4.90;;;;;;;;;;5060262;28;21207;-77
2023/10/07 01:00:48;;;;;;;13.25;5.32;;;;;;;;;;5043773;28;20442;-78
2023/10/07 01:05:55;;;;;;;11.57;5.68;;;;;;;;;;5059582;28;20087;-78
2023/10/07 01:08:27;;;;;;;9.27;5.00;;;;;;;;;;5056110;28;20024;-78
2023/10/07 01:11:06;;;;;;;11.00;5.10;;;;;;;;;;5056726;28;20062;-78
2023/10/07 01:13:32;;;;;;;13.48;5.32;;;;;;;;;;5061716;28;20032;-77
2023/10/07 01:15:59;;;;;;;9.25;4.63;;;;;;;;;;5068632;28;20043;-78
2023/10/07 01:18:24;;;;;;;8.65;4.40;;;;;;;;;;5064375;28;20020;-77
2023/10/07 01:23:23;;;;;;;11.35;5.50;;;;;;;;;;5062132;28;20514;-78
2023/10/07 01:25:50;;;;;;;9.18;4.97;;;;;;;;;;5063020;28;20107;-78
2023/10/07 01:28:16;;;;;;;12.25;5.53;;;;;;;;;;5062334;28;20025;-78
2023/10/07 01:31:07;;;;;;;9.43;5.43;;;;;;;;;;5061793;28;20046;-77
2023/10/07 01:33:46;;;;;;;12.98;5.70;;;;;;;;;;5042516;28;20119;-78
2023/10/07 01:36:18;;;;;;;10.98;5.95;;;;;;;;;;5046633;28;20025;-78
2023/10/07 01:38:44;;;;;;;8.93;5.00;;;;;;;;;;5059776;28;20020;-77
2023/10/07 01:41:18;;;;;;;12.50;5.10;;;;;;;;;;5024722;28;20681;-80
2023/10/07 01:43:49;;;;;;;9.10;4.80;;;;;;;;;;5045254;28;20476;-80
2023/10/07 01:46:19;;;;;;;11.55;5.80;;;;;;;;;;5045302;28;20712;-79
2023/10/07 01:48:53;;;;;;;12.90;6.25;;;;;;;;;;5045830;28;20039;-79
2023/10/07 01:51:18;;;;;;;10.50;5.50;;;;;;;;;;5044833;28;20468;-79
2023/10/07 01:53:44;;;;;;;12.32;5.60;;;;;;;;;;5042359;28;20119;-80
2023/10/07 01:56:14;;;;;;;9.57;4.85;;;;;;;;;;5045338;28;20399;-80
2023/10/07 01:58:40;;;;;;;11.25;5.70;;;;;;;;;;5043440;28;20407;-80
2023/10/07 02:01:05;;;;;;;10.25;5.30;;;;;;;;;;5064132;28;20039;-79
2023/10/07 02:03:32;;;;;;;11.45;5.78;;;;;;;;;;5064328;28;20052;-79
2023/10/07 02:05:58;;;;;;;9.48;5.10;;;;;;;;;;5045085;28;20472;-80
2023/10/07 02:08:25;;;;;;;10.23;5.00;;;;;;;;;;5065186;28;20035;-80
2023/10/07 02:10:58;;;;;;;9.25;5.43;;;;;;;;;;5058931;28;20472;-79
2023/10/07 02:13:27;;;;;;;13.85;6.00;;;;;;;;;;5062707;28;20032;-79
2023/10/07 02:15:54;;;;;;;10.80;5.63;;;;;;;;;;5061448;28;20025;-79
2023/10/07 02:18:20;;;;;;;11.38;5.82;;;;;;;;;;5067259;28;20043;-79
2023/10/07 02:20:49;;;;;;;13.90;5.85;;;;;;;;;;5067469;28;20036;-80
2023/10/07 02:23:37;;;;;;;12.52;5.65;;;;;;;;;;5067137;28;20074;-80
2023/10/07 02:26:05;;;;;;;12.57;6.00;;;;;;;;;;5064326;28;20024;-79
2023/10/07 02:28:33;;;;;;;16.42;5.88;;;;;;;;;;5067011;28;20119;-79
2023/10/07 02:31:07;;;;;;;10.80;5.22;;;;;;;;;;5069489;28;20826;-79
2023/10/07 02:33:42;;;;;;;14.90;6.57;;;;;;;;;;5071283;28;20024;-79
2023/10/07 02:36:28;;;;;;;14.07;6.18;;;;;;;;;;5065550;28;20060;-79
2023/10/07 02:39:24;;;;;;;12.13;6.03;;;;;;;;;;5070119;28;20024;-79
2023/10/07 02:41:50;;;;;;;14.40;6.63;;;;;;;;;;5066625;28;20107;-80
2023/10/07 02:44:17;;;;;;;10.65;5.78;;;;;;;;;;5067629;28;20089;-79
2023/10/07 02:46:43;;;;;;;17.15;6.35;;;;;;;;;;5067294;28;20028;-79
2023/10/07 02:49:13;;;;;;;13.18;5.95;;;;;;;;;;5070213;28;20067;-80
2023/10/07 02:51:39;;;;;;;11.55;7.05;;;;;;;;;;5078439;28;20027;-79
2023/10/07 02:56:54;;;;;;;14.90;6.60;;;;;;;;;;5066368;28;20046;-79
2023/10/07 03:02:37;;;;;;;9.80;6.07;;;;;;;;;;5053376;28;20460;-79
2023/10/07 03:05:13;;;;;;;10.25;5.50;;;;;;;;;;5064620;28;20537;-79
2023/10/07 03:07:49;;;;;;;10.60;6.00;;;;;;;;;;5065132;28;20516;-79
2023/10/07 03:10:43;;;;;;;16.98;6.43;;;;;;;;;;5062680;28;20028;-80
2023/10/07 03:13:09;;;;;;;9.55;5.28;;;;;;;;;;5061613;28;20073;-79
2023/10/07 03:18:00;;;;;;;11.88;6.07;;;;;;;;;;5057655;28;20025;-80
2023/10/07 03:20:28;;;;;;;11.02;5.22;;;;;;;;;;5054743;28;20488;-79
2023/10/07 03:23:25;;;;;;;9.93;5.35;;;;;;;;;;5057846;28;20548;-80
2023/10/07 03:28:24;;;;;;;11.15;5.95;;;;;;;;;;5059419;28;20128;-80
2023/10/07 03:30:55;;;;;;;12.00;6.50;;;;;;;;;;5039456;28;20031;-79
2023/10/07 03:33:23;;;;;;;9.68;5.57;;;;;;;;;;5042289;28;20026;-80
2023/10/07 03:38:25;;;;;;;14.30;7.57;;;;;;;;;;5058671;28;20107;-77
2023/10/07 03:40:55;;;;;;;15.52;5.82;;;;;;;;;;5059593;28;20051;-78
2023/10/07 03:43:27;;;;;;;14.55;6.60;;;;;;;;;;5041774;28;20147;-77
2023/10/07 03:45:54;;;;;;;12.18;5.72;;;;;;;;;;5057703;28;20446;-77
2023/10/07 03:48:30;;;;;;;16.25;6.50;;;;;;;;;;5055374;28;20526;-78
2023/10/07 03:51:04;;;;;;;12.73;7.65;;;;;;;;;;5042580;28;20028;-77
2023/10/07 03:53:32;;;;;;;11.68;7.10;;;;;;;;;;5058577;28;20551;-77
2023/10/07 03:55:59;;;;;;;13.43;6.10;;;;;;;;;;5042437;28;20107;-78
2023/10/07 03:58:27;;;;;;;13.27;6.40;;;;;;;;;;5057056;28;20396;-79
2023/10/07 04:00:53;;;;;;;13.63;7.68;;;;;;;;;;5042994;28;20025;-80
2023/10/07 04:03:23;;;;;;;14.30;6.82;;;;;;;;;;5056491;28;20392;-80
2023/10/07 04:05:49;;;;;;;13.23;7.43;;;;;;;;;;5043115;28;20059;-80
2023/10/07 04:08:15;;;;;;;15.82;7.43;;;;;;;;;;5057571;28;20120;-80
2023/10/07 04:10:45;;;;;;;11.23;6.47;;;;;;;;;;5039013;28;20070;-79
2023/10/07 04:13:21;;;;;;;14.23;7.25;;;;;;;;;;5060452;28;20499;-79
2023/10/07 04:15:51;;;;;;;16.30;8.35;;;;;;;;;;5058087;28;20033;-80
2023/10/07 04:18:17;;;;;;;12.70;6.88;;;;;;;;;;5065308;28;20020;-79
2023/10/07 04:20:50;;;;;;;14.45;6.93;;;;;;;;;;5059186;28;20062;-79
2023/10/07 04:23:24;;;;;;;16.45;9.65;;;;;;;;;;5045531;28;20028;-79
2023/10/07 04:25:56;;;;;;;15.05;8.52;;;;;;;;;;5040201;28;20488;-79
2023/10/07 04:28:25;;;;;;;18.70;9.67;;;;;;;;;;5036647;28;20540;-80
2023/10/07 04:30:53;;;;;;;13.25;8.10;;;;;;;;;;5060035;28;20016;-79
2023/10/07 04:33:25;;;;;;;17.50;9.38;;;;;;;;;;5059292;28;20253;-80
2023/10/07 04:35:52;;;;;;;17.73;8.38;;;;;;;;;;5065962;28;20541;-79
2023/10/07 04:43:36;;;;;;;13.98;8.80;;;;;;;;;;5061350;28;20186;-79
2023/10/07 04:46:12;;;;;;;13.73;8.02;;;;;;;;;;5041643;28;20127;-80
2023/10/07 04:48:54;;;;;;;14.75;9.23;;;;;;;;;;5062348;28;20032;-80
2023/10/07 04:51:24;;;;;;;15.85;8.93;;;;;;;;;;5063003;28;20032;-79
2023/10/07 04:53:57;;;;;;;13.43;8.20;;;;;;;;;;5060733;28;20074;-82
2023/10/07 04:56:25;;;;;;;16.55;10.02;;;;;;;;;;5047450;28;20391;-82
2023/10/07 04:58:52;;;;;;;15.88;9.27;;;;;;;;;;5070282;28;20479;-81
2023/10/07 05:01:36;;;;;;;14.63;9.02;;;;;;;;;;5049278;28;20099;-83
2023/10/07 05:04:05;;;;;;;14.13;8.13;;;;;;;;;;5050734;28;20029;-83
2023/10/07 05:06:34;;;;;;;18.48;9.63;;;;;;;;;;5062786;28;20032;-80
2023/10/07 05:09:03;;;;;;;17.63;10.32;;;;;;;;;;5064699;28;20398;-82
2023/10/07 05:11:29;;;;;;;15.90;9.45;;;;;;;;;;5043693;28;20024;-82
2023/10/07 05:13:55;;;;;;;15.60;8.88;;;;;;;;;;5044419;28;20491;-82
2023/10/07 05:16:22;;;;;;;15.60;9.20;;;;;;;;;;5046634;28;20040;-83
2023/10/07 05:18:47;;;;;;;14.55;7.57;;;;;;;;;;5060783;28;20588;-83
2023/10/07 05:21:16;;;;;;;14.32;8.13;;;;;;;;;;5059973;28;20176;-82
2023/10/07 05:23:41;;;;;;;17.08;8.25;;;;;;;;;;5055509;28;20078;-82
2023/10/07 05:26:09;;;;;;;14.40;8.07;;;;;;;;;;5041366;28;20032;-82
2023/10/07 05:28:35;;;;;;;17.38;9.15;;;;;;;;;;5039724;28;20098;-83
2023/10/07 05:31:05;;;;;;;16.65;8.90;;;;;;;;;;5059180;28;20506;-83
2023/10/07 05:33:35;;;;;;;16.90;8.55;;;;;;;;;;5040814;28;20032;-83
2023/10/07 05:36:11;;;;;;;15.20;9.07;;;;;;;;;;5040000;28;20472;-81
2023/10/07 05:38:37;;;;;;;15.05;8.75;;;;;;;;;;5041163;28;20025;-81
2023/10/07 05:41:06;;;;;;;19.10;9.57;;;;;;;;;;5056915;28;20032;-83
2023/10/07 05:43:32;;;;;;;16.63;8.70;;;;;;;;;;5039210;28;20029;-83
2023/10/07 05:45:58;;;;;;;14.27;8.55;;;;;;;;;;5036654;28;20036;-82
2023/10/07 05:48:24;;;;;;;17.23;8.75;;;;;;;;;;5061059;28;20142;-83
2023/10/07 05:50:49;;;;;;;20.08;8.95;;;;;;;;;;5063208;28;20099;-83
2023/10/07 05:53:15;;;;;;;19.38;9.63;;;;;;;;;;5059903;28;20046;-82
2023/10/07 05:55:41;;;;;;;19.33;9.25;;;;;;;;;;5037209;28;20636;-83
2023/10/07 05:58:07;;;;;;;21.05;9.70;;;;;;;;;;5062218;28;20024;-83
2023/10/07 06:00:35;;;;;;;19.15;10.32;;;;;;;;;;5052791;28;20439;-83
2023/10/07 06:03:06;;;;;;;18.90;9.15;;;;;;;;;;5044110;28;20021;-81
2023/10/07 06:05:33;;;;;;;17.63;8.43;;;;;;;;;;5063369;28;20028;-83
2023/10/07 06:07:59;;;;;;;17.80;9.52;;;;;;;;;;5068645;28;20032;-81
2023/10/07 06:10:25;;;;;;;15.88;9.52;;;;;;;;;;5060195;28;20418;-83
2023/10/07 06:12:57;;;;;;;15.73;9.95;;;;;;;;;;5060474;28;20071;-83
2023/10/07 06:15:25;;;;;;;15.93;9.98;;;;;;;;;;5059989;28;20032;-84
2023/10/07 06:17:51;;;;;;;17.05;10.00;;;;;;;;;;5066953;28;20496;-84
2023/10/07 06:20:26;;;;;;;17.73;9.88;;;;;;;;;;5048683;28;20044;-83
2023/10/07 06:22:55;;;;;;;16.50;10.00;;;;;;;;;;5056223;28;20032;-83
2023/10/07 06:25:30;;;;;;;19.17;10.07;;;;;;;;;;5053519;28;20885;-82
2023/10/07 06:27:58;;;;;;;16.65;9.50;;;;;;;;;;5043108;28;20035;-82
2023/10/07 06:30:25;;;;;;;15.90;9.15;;;;;;;;;;5038505;28;20492;-82
2023/10/07 06:32:56;;;;;;;17.92;9.65;;;;;;;;;;5061900;28;20025;-83
2023/10/07 06:35:23;;;;;;;16.80;9.27;;;;;;;;;;5046692;28;20055;-84
2023/10/07 06:37:51;;;;;;;18.10;10.15;;;;;;;;;;5062710;28;20017;-83
2023/10/07 06:40:28;;;;;;;18.20;10.00;;;;;;;;;;5062672;28;20024;-83
2023/10/07 06:42:56;;;;;;;17.67;9.70;;;;;;;;;;5063980;28;20032;-82
2023/10/07 06:45:22;;;;;;;16.45;9.30;;;;;;;;;;5045344;28;20040;-83
2023/10/07 06:47:48;;;;;;;20.08;9.02;;;;;;;;;;5060661;28;20025;-84
2023/10/07 06:50:27;;;;;;;17.60;9.68;;;;;;;;;;5062738;28;20491;-83
2023/10/07 06:52:55;;;;;;;22.80;10.85;;;;;;;;;;5058699;28;20032;-80
2023/10/07 06:55:21;;;;;;;16.17;10.02;;;;;;;;;;5039376;28;20051;-83
2023/10/07 06:57:47;;;;;;;15.65;8.60;;;;;;;;;;5042347;28;20066;-83
2023/10/07 07:00:27;;;;;;;18.23;9.77;;;;;;;;;;5046195;28;20056;-83
2023/10/07 07:02:59;;;;;;;15.18;9.05;;;;;;;;;;5048992;28;20476;-82
2023/10/07 07:05:25;;;;;;;16.85;8.85;;;;;;;;;;5044643;28;20051;-82
2023/10/07 07:07:54;;;;;;;16.77;9.20;;;;;;;;;;5072798;28;20024;-84
2023/10/07 07:10:30;;;;;;;15.35;9.65;;;;;;;;;;5058669;28;20024;-79
2023/10/07 07:13:06;;;;;;;17.13;10.07;;;;;;;;;;5047228;28;20119;-79
2023/10/07 07:15:37;;;;;;;18.65;9.63;;;;;;;;;;5045762;28;20032;-80
2023/10/07 07:20:49;;;;;;;17.83;9.05;;;;;;;;;;5060695;28;20055;-78
2023/10/07 07:23:21;;;;;;;13.23;7.93;;;;;;;;;;5039865;28;20037;-80
2023/10/07 07:28:34;;;;;;;15.52;8.93;;;;;;;;;;5061156;28;20043;-80
2023/10/07 07:30:59;;;;;;;16.80;9.00;;;;;;;;;;5062561;28;20086;-80
2023/10/07 07:33:29;;;;;;;16.13;8.85;;;;;;;;;;5065219;28;20029;-80
2023/10/07 07:35:56;;;;;;;18.52;8.85;;;;;;;;;;5040728;28;20087;-80
2023/10/07 07:40:52;;;;;;;14.23;7.90;;;;;;;;;;5065359;28;20115;-83
2023/10/07 07:43:25;;;;;;;15.30;8.48;;;;;;;;;;5046497;28;20503;-83
2023/10/07 07:46:06;;;;;;;15.45;8.77;;;;;;;;;;5062665;28;20067;-84
2023/10/07 07:48:36;;;;;;;14.50;9.13;;;;;;;;;;5065064;28;20032;-84
2023/10/07 07:51:01;;;;;;;16.10;8.70;;;;;;;;;;5063901;28;20031;-79
2023/10/07 07:53:30;;;;;;;15.55;9.07;;;;;;;;;;5064972;28;20024;-79
2023/10/07 07:55:58;;;;;;;17.35;9.88;;;;;;;;;;5062728;28;20090;-80
2023/10/07 07:58:24;;;;;;;17.83;9.60;;;;;;;;;;5064774;28;20103;-79
2023/10/07 08:00:58;;;;;;;15.20;9.05;;;;;;;;;;5070280;28;20465;-79
2023/10/07 08:03:24;;;;;;;16.17;8.90;;;;;;;;;;5068884;28;20027;-80
2023/10/07 08:05:50;;;;;;;17.63;9.27;;;;;;;;;;5053084;28;20024;-79
2023/10/07 08:08:20;;;;;;;18.20;9.27;;;;;;;;;;5067376;28;20080;-80
2023/10/07 08:10:46;;;;;;;15.50;8.82;;;;;;;;;;5064869;28;20040;-80
2023/10/07 08:13:12;;;;;;;15.45;8.70;;;;;;;;;;5051050;28;20020;-80
2023/10/07 08:15:41;;;;;;;16.10;9.63;;;;;;;;;;5067449;28;20139;-80
2023/10/07 08:18:07;;;;;;;19.92;9.63;;;;;;;;;;5063877;28;20105;-79
2023/10/07 08:20:44;;;;;;;17.38;8.93;;;;;;;;;;5061357;28;20056;-78
2023/10/07 08:23:35;;;;;;;14.55;9.25;;;;;;;;;;5065290;28;20491;-77
2023/10/07 08:26:13;;;;;;;14.40;8.35;;;;;;;;;;5053981;28;20029;-77
2023/10/07 08:29:25;;;;;;;18.08;9.25;;;;;;;;;;5062497;28;20075;-78
2023/10/07 08:31:38;;;;;;;;;;;;;;;;;;5062472;28;20117;-77
2023/10/07 08:36:36;;;;;;;17.60;8.90;;;;;;;;;;5059779;28;20109;-77
2023/10/07 08:39:06;;;;;;;16.45;9.23;;;;;;;;;;5042055;28;20371;-80
2023/10/07 08:41:32;;;;;;;15.50;8.50;;;;;;;;;;5048428;28;20020;-79
2023/10/07 08:44:15;;;;;;;15.20;8.70;;;;;;;;;;5064705;28;20028;-78
2023/10/07 08:46:49;;;;;;;16.45;9.00;;;;;;;;;;5046609;28;20475;-78
2023/10/07 08:49:24;;;;;;;16.65;9.07;;;;;;;;;;5060754;28;20032;-78
2023/10/07 08:51:52;;;;;;;16.33;9.30;;;;;;;;;;5049472;28;20115;-78
2023/10/07 08:54:17;;;;;;;16.80;9.30;;;;;;;;;;5048199;28;20021;-78
2023/10/07 08:56:55;;;;;;;16.02;8.68;;;;;;;;;;5071218;28;20056;-78
2023/10/07 08:59:32;;;;;;;13.35;7.72;;;;;;;;;;5067442;28;20029;-85
2023/10/07 09:02:00;;;;;;;16.42;8.73;;;;;;;;;;5051497;28;20023;-85
2023/10/07 09:04:31;;;;;;;19.23;8.90;;;;;;;;;;5063065;28;20020;-85
2023/10/07 09:07:00;;;;;;;18.00;8.15;;;;;;;;;;5057509;28;20016;-86
2023/10/07 09:09:35;;;;;;;14.43;8.27;;;;;;;;;;5064614;28;20032;-86
2023/10/07 09:12:08;;;;;;;13.23;8.68;;;;;;;;;;5048139;28;20024;-85
2023/10/07 09:14:33;;;;;;;14.35;8.10;;;;;;;;;;5058734;28;20020;-85
2023/10/07 09:17:01;;;;;;;14.38;8.07;;;;;;;;;;5065414;28;20127;-85
2023/10/07 09:19:28;;;;;;;14.90;7.93;;;;;;;;;;5038533;28;20731;-85
2023/10/07 09:21:57;;;;;;;15.75;8.75;;;;;;;;;;5044511;28;20362;-85
2023/10/07 09:24:24;;;;;;;15.57;9.10;;;;;;;;;;5046032;28;20111;-86
2023/10/07 09:26:56;;;;;;;15.80;8.20;;;;;;;;;;5064490;28;20458;-84
2023/10/07 09:29:27;;;;;;;15.68;8.25;;;;;;;;;;5062717;28;20162;-86
2023/10/07 09:32:05;;;;;;;17.13;8.75;;;;;;;;;;5048013;28;20103;-85
2023/10/07 09:34:44;;;;;;;21.55;9.23;;;;;;;;;;5063603;28;20115;-84
2023/10/07 09:37:20;;;;;;;17.58;9.20;;;;;;;;;;5041260;28;20457;-84
2023/10/07 09:39:53;;;;;;;16.63;8.55;;;;;;;;;;5064873;28;20024;-79
2023/10/07 09:42:26;;;;;;;14.40;7.93;;;;;;;;;;5063512;28;20123;-78
2023/10/07 09:47:37;;;;;;;16.35;8.80;;;;;;;;;;5054484;28;20427;-79
2023/10/07 09:50:10;;;;;;;12.77;7.70;;;;;;;;;;5044845;28;20078;-79
2023/10/07 09:52:41;;;;;;;15.02;7.88;;;;;;;;;;5056704;28;20063;-79
2023/10/07 09:55:43;;;;;;;13.07;7.65;;;;;;;;;;5063292;28;20036;-80
2023/10/07 09:58:47;;;;;;;12.20;7.25;;;;;;;;;;5041338;28;20067;-78
2023/10/07 10:01:39;;;;;;;13.98;7.35;;;;;;;;;;5049918;28;20036;-79
2023/10/07 10:04:27;;;;;;;14.57;6.65;;;;;;;;;;5064125;28;20039;-79
2023/10/07 10:07:11;;;;;;;15.20;7.45;;;;;;;;;;5063783;28;20051;-79
2023/10/07 10:12:29;;;;;;;14.00;6.70;;;;;;;;;;5058701;28;20209;-85
2023/10/07 10:15:50;;;;;;;16.80;7.93;;;;;;;;;;5062377;28;20112;-87
2023/10/07 10:17:53;;;;;;;12.75;6.70;;;;;;;;;;5059276;28;20040;-86
2023/10/07 10:20:21;;;;;;;14.43;6.68;;;;;;;;;;5047509;28;20024;-86
2023/10/07 10:22:51;;;;;;;14.32;6.65;;;;;;;;;;5049973;28;20492;-85
2023/10/07 10:25:26;;;;;;;15.63;6.90;;;;;;;;;;5053655;28;20021;-85
2023/10/07 10:28:03;;;;;;;15.63;7.10;;;;;;;;;;5047924;28;20078;-85
2023/10/07 10:30:29;;;;;;;16.10;5.80;;;;;;;;;;5046982;28;20025;-85
2023/10/07 10:33:00;;;;;;;9.95;5.63;;;;;;;;;;5045163;28;20484;-86
2023/10/07 10:35:27;;;;;;;12.80;6.45;;;;;;;;;;5068181;28;20025;-86
2023/10/07 10:37:59;;;;;;;13.90;5.65;;;;;;;;;;5050532;28;20060;-86
2023/10/07 10:40:31;;;;;;;7.93;5.15;;;;;;;;;;5044244;28;20032;-88
2023/10/07 10:42:57;;;;;;;12.20;5.45;;;;;;;;;;5070221;28;20024;-86
2023/10/07 10:45:29;;;;;;;12.43;4.93;;;;;;;;;;5056304;28;20058;-87
2023/10/07 10:47:58;;;;;;;11.85;5.20;;;;;;;;;;5053121;28;20036;-88
2023/10/07 10:50:24;;;;;;;8.98;4.43;;;;;;;;;;5053175;28;20131;-88
2023/10/07 10:52:50;;;;;;;10.80;4.25;;;;;;;;;;5070911;28;20447;-88
2023/10/07 10:55:16;;;;;;;11.00;4.82;;;;;;;;;;5071541;28;20032;-87
2023/10/07 10:57:42;;;;;;;12.75;4.85;;;;;;;;;;5053983;28;20038;-86
2023/10/07 11:00:29;;;;;;;11.60;4.95;;;;;;;;;;5053668;28;20476;-83
2023/10/07 11:02:55;;;;;;;13.95;5.13;;;;;;;;;;5069314;28;20127;-83
2023/10/07 11:05:21;;;;;;;13.02;4.80;;;;;;;;;;5056045;28;20031;-83
2023/10/07 11:07:50;;;;;;;11.30;5.13;;;;;;;;;;5058911;28;20049;-83
2023/10/07 11:10:20;;;;;;;11.25;4.80;;;;;;;;;;5074446;28;20073;-82
2023/10/07 11:12:51;;;;;;;12.13;4.72;;;;;;;;;;5070597;28;20024;-83
2023/10/07 11:15:24;;;;;;;12.25;4.45;;;;;;;;;;5071757;28;20028;-83
2023/10/07 11:18:12;;;;;;;10.27;4.35;;;;;;;;;;5059665;28;20514;-83
2023/10/07 11:20:41;;;;;;;11.63;4.63;;;;;;;;;;5051650;28;20037;-82
2023/10/07 11:23:08;;;;;;;9.93;4.88;;;;;;;;;;5043363;28;20020;-83
2023/10/07 11:25:35;;;;;;;11.35;4.25;;;;;;;;;;5069013;28;20456;-82
2023/10/07 11:28:08;;;;;;;13.52;4.88;;;;;;;;;;5072544;28;20109;-83
2023/10/07 11:30:46;;;;;;;9.65;4.53;;;;;;;;;;5070980;28;20039;-83
2023/10/07 11:33:15;;;;;;;12.90;4.93;;;;;;;;;;5053452;28;20033;-83
2023/10/07 11:35:42;;;;;;;12.90;4.88;;;;;;;;;;5080157;28;20051;-83
2023/10/07 11:38:11;;;;;;;12.55;5.07;;;;;;;;;;5052119;28;20468;-82
2023/10/07 11:40:37;;;;;;;15.23;5.78;;;;;;;;;;5062325;28;20536;-83
2023/10/07 11:43:08;;;;;;;10.05;5.18;;;;;;;;;;5067752;28;20061;-83
2023/10/07 11:45:36;;;;;;;9.43;4.70;;;;;;;;;;5055292;28;20071;-83
2023/10/07 11:48:05;;;;;;;18.02;5.50;;;;;;;;;;5068683;28;20096;-82
2023/10/07 11:50:35;;;;;;;12.95;5.32;;;;;;;;;;5071108;28;20021;-83
2023/10/07 11:53:01;;;;;;;12.10;5.18;;;;;;;;;;5056740;28;20111;-82
2023/10/07 11:55:27;;;;;;;13.75;5.80;;;;;;;;;;5066643;28;20086;-83
2023/10/07 11:57:53;;;;;;;12.30;5.90;;;;;;;;;;5063051;28;20016;-83
2023/10/07 12:00:28;;;;;;;12.15;5.32;;;;;;;;;;5054131;28;20081;-83
2023/10/07 12:02:57;;;;;;;13.38;5.40;;;;;;;;;;5065531;28;20075;-82
2023/10/07 12:05:27;;;;;;;9.20;4.60;;;;;;;;;;5058685;28;20603;-82
2023/10/07 12:08:02;;;;;;;17.30;5.22;;;;;;;;;;5079680;28;20028;-82
2023/10/07 12:10:33;;;;;;;12.00;4.88;;;;;;;;;;5072340;28;20025;-83
2023/10/07 12:12:59;;;;;;;10.48;4.65;;;;;;;;;;5069631;28;20027;-83
2023/10/07 12:15:25;;;;;;;10.38;4.25;;;;;;;;;;5069330;28;20032;-83
2023/10/07 12:17:51;;;;;;;12.95;4.63;;;;;;;;;;5069368;28;20025;-83
2023/10/07 12:20:16;;;;;;;9.25;4.50;;;;;;;;;;5063206;28;20125;-83
2023/10/07 12:22:43;;;;;;;13.07;4.65;;;;;;;;;;5069501;28;20021;-82
2023/10/07 12:25:18;;;;;;;10.18;4.18;;;;;;;;;;5067512;28;20032;-82
2023/10/07 12:27:47;;;;;;;12.73;4.13;;;;;;;;;;5068586;28;20028;-83
2023/10/07 12:30:14;;;;;;;12.82;4.15;;;;;;;;;;5069872;28;20020;-88
2023/10/07 12:32:41;;;;;;;14.07;4.47;;;;;;;;;;5051763;28;20025;-88
2023/10/07 12:35:09;;;;;;;12.07;4.75;;;;;;;;;;5072034;28;20029;-88
2023/10/07 12:37:38;;;;;;;12.15;4.15;;;;;;;;;;5065176;28;20487;-88
2023/10/07 12:40:11;;;;;;;12.57;4.20;;;;;;;;;;5065311;28;20020;-88
2023/10/07 12:42:39;;;;;;;15.43;4.53;;;;;;;;;;5073093;28;20115;-88
2023/10/07 12:45:05;;;;;;;15.48;4.75;;;;;;;;;;5066555;28;20563;-87
2023/10/07 12:47:34;;;;;;;14.10;4.15;;;;;;;;;;5054240;28;20054;-89
2023/10/07 12:50:20;;;;;;;12.18;4.10;;;;;;;;;;5044586;28;20068;-87
2023/10/07 12:52:46;;;;;;;14.55;4.57;;;;;;;;;;5072456;28;20492;-83
2023/10/07 12:55:12;;;;;;;12.48;4.22;;;;;;;;;;5051279;28;20499;-79
2023/10/07 12:57:40;;;;;;;9.85;4.35;;;;;;;;;;5050438;28;20024;-80
2023/10/07 13:00:18;;;;;;;12.73;4.20;;;;;;;;;;5052219;28;20078;-81
2023/10/07 13:02:45;;;;;;;10.30;4.53;;;;;;;;;;5050872;28;20029;-79
2023/10/07 13:05:17;;;;;;;15.32;4.47;;;;;;;;;;5064445;28;20074;-80
2023/10/07 13:07:44;;;;;;;;;;;;;;;;;;5058196;28;20090;-79
2023/10/07 13:10:11;;;;;;;12.48;4.13;;;;;;;;;;5068690;28;19912;-79
2023/10/07 13:12:37;;;;;;;11.10;4.32;;;;;;;;;;5074705;28;20071;-79
2023/10/07 13:15:14;;;;;;;12.85;4.38;;;;;;;;;;5075281;28;20404;-79
2023/10/07 13:17:46;;;;;;;12.50;4.15;;;;;;;;;;5049091;28;20484;-79
2023/10/07 13:20:23;;;;;;;13.05;4.57;;;;;;;;;;5063398;28;20112;-79
2023/10/07 13:22:54;;;;;;;14.55;4.22;;;;;;;;;;5047354;28;20028;-80
2023/10/07 13:25:19;;;;;;;12.57;4.22;;;;;;;;;;5071572;28;20040;-80
2023/10/07 13:27:59;;;;;;;14.38;4.47;;;;;;;;;;5070584;28;20033;-79
2023/10/07 13:30:25;;;;;;;13.63;4.50;;;;;;;;;;5067242;28;20024;-79
2023/10/07 13:32:56;;;;;;;13.27;4.30;;;;;;;;;;5070450;28;20494;-80
2023/10/07 13:35:24;;;;;;;13.32;4.80;;;;;;;;;;5071758;28;20059;-80
2023/10/07 13:37:51;;;;;;;11.88;4.50;;;;;;;;;;5070418;28;20506;-79
2023/10/07 13:40:19;;;;;;;10.68;4.32;;;;;;;;;;5052528;28;20024;-82
2023/10/07 13:42:49;;;;;;;11.30;4.30;;;;;;;;;;5052425;28;20174;-82
2023/10/07 13:45:18;;;;;;;9.05;4.30;;;;;;;;;;5051149;28;20024;-82
2023/10/07 13:47:46;;;;;;;19.25;4.50;;;;;;;;;;5064346;28;20020;-82
2023/10/07 13:50:15;;;;;;;14.65;4.22;;;;;;;;;;5067879;28;20369;-82
2023/10/07 13:52:58;;;;;;;10.38;3.85;;;;;;;;;;5051753;28;20049;-82
2023/10/07 13:58:09;;;;;;;12.40;3.83;;;;;;;;;;5073865;28;20033;-82
2023/10/07 14:00:36;;;;;;;12.05;3.95;;;;;;;;;;5077617;28;20119;-82
2023/10/07 14:03:06;;;;;;;10.73;4.35;;;;;;;;;;5071249;28;20025;-82
2023/10/07 14:05:41;;;;;;;13.40;4.55;;;;;;;;;;5053454;28;20025;-82
2023/10/07 14:08:16;;;;;;;12.00;4.13;;;;;;;;;;5047695;28;20369;-82
2023/10/07 14:10:47;;;;;;;11.98;3.92;;;;;;;;;;5050729;28;20078;-82
2023/10/07 14:13:13;;;;;;;12.07;4.30;;;;;;;;;;5069955;28;20505;-82
2023/10/07 14:15:38;;;;;;;11.00;3.92;;;;;;;;;;5071771;28;20100;-82
2023/10/07 14:18:05;;;;;;;14.35;4.00;;;;;;;;;;5048635;28;20070;-82
2023/10/07 14:20:31;;;;;;;14.57;4.10;;;;;;;;;;5051536;28;20459;-82
2023/10/07 14:22:57;;;;;;;9.77;3.47;;;;;;;;;;5054733;28;20111;-82
2023/10/07 14:25:24;;;;;;;9.07;3.58;;;;;;;;;;5070568;28;20040;-82
2023/10/07 14:27:53;;;;;;;11.45;3.40;;;;;;;;;;5047661;28;20029;-82
2023/10/07 14:30:22;;;;;;;11.98;4.00;;;;;;;;;;5048891;28;20024;-81
2023/10/07 14:32:47;;;;;;;13.55;4.18;;;;;;;;;;5054472;28;20025;-82
2023/10/07 14:35:13;;;;;;;11.48;3.45;;;;;;;;;;5065387;28;20032;-81
2023/10/07 14:37:38;;;;;;;10.13;3.60;;;;;;;;;;5061513;28;20052;-81
2023/10/07 14:40:06;;;;;;;10.93;3.60;;;;;;;;;;5070233;28;20031;-81
2023/10/07 14:42:32;;;;;;;10.60;4.07;;;;;;;;;;5071294;28;20065;-82
2023/10/07 14:44:57;;;;;;;10.82;3.58;;;;;;;;;;5056124;28;20028;-81
2023/10/07 14:47:24;;;;;;;7.95;3.25;;;;;;;;;;5052639;28;20017;-81
2023/10/07 14:49:50;;;;;;;12.40;3.88;;;;;;;;;;5071241;28;20104;-82
2023/10/07 14:52:16;;;;;;;11.65;3.63;;;;;;;;;;5054824;28;20035;-81
2023/10/07 14:54:42;;;;;;;11.75;3.70;;;;;;;;;;5070231;28;20032;-82
2023/10/07 14:57:07;;;;;;;11.32;3.80;;;;;;;;;;5068269;28;20032;-81
2023/10/07 14:59:33;;;;;;;9.27;3.55;;;;;;;;;;5042129;28;20036;-86
2023/10/07 15:02:01;;;;;;;10.52;3.90;;;;;;;;;;5062109;28;20024;-86
2023/10/07 15:04:27;;;;;;;14.90;4.25;;;;;;;;;;5059999;28;20559;-85
2023/10/07 15:06:53;;;;;;;10.65;3.65;;;;;;;;;;5043703;28;20388;-82
2023/10/07 15:09:21;;;;;;;12.48;3.58;;;;;;;;;;5061980;28;20031;-79
2023/10/07 15:11:51;;;;;;;8.65;3.22;;;;;;;;;;5047812;28;20028;-79
2023/10/07 15:14:17;;;;;;;9.00;3.20;;;;;;;;;;5061862;28;20091;-78
2023/10/07 15:16:43;;;;;;;8.63;3.53;;;;;;;;;;5065180;28;20432;-79
2023/10/07 15:19:10;;;;;;;10.38;3.85;;;;;;;;;;5050185;28;20079;-79
2023/10/07 15:21:37;;;;;;;8.25;3.30;;;;;;;;;;5048815;28;20099;-78
2023/10/07 15:24:06;;;;;;;10.75;4.03;;;;;;;;;;5066562;28;20028;-78
2023/10/07 15:26:33;;;;;;;8.88;3.33;;;;;;;;;;5063826;28;20046;-79
2023/10/07 15:29:00;;;;;;;9.02;3.38;;;;;;;;;;5051013;28;20476;-80
2023/10/07 15:31:26;;;;;;;10.23;3.60;;;;;;;;;;5049915;28;20024;-77
2023/10/07 15:33:53;;;;;;;9.93;3.75;;;;;;;;;;5051020;28;20483;-78
2023/10/07 15:36:19;;;;;;;11.35;4.18;;;;;;;;;;5052551;28;20497;-78